Time;durP1;ratioP1;P1;durP2;ratioP2;P2;SDS_P1;SDS_P2;PMS_P1;PMS_P2;Temp;Humidity;BMP_temperature;BMP_pressure;BME280_temperature;BME280_humidity;BME280_pressure;Samples;Min_cycle;Max_cycle;Signal;HPM_P1;HPM_P2
2022/12/22 03:26:48;;;;;;;2.77;2.30;;;9.90;99.90;;;;;;5063163;28;20422;-78
2022/12/22 03:29:13;;;;;;;2.23;1.57;;;10.00;99.90;;;;;;5056349;28;20488;-78
2022/12/22 03:31:39;;;;;;;4.60;2.07;;;10.10;99.90;;;;;;5056064;28;20174;-77
2022/12/22 03:34:04;;;;;;;2.73;1.73;;;10.00;99.90;;;;;;5058239;28;20623;-77
2022/12/22 03:36:30;;;;;;;3.43;1.80;;;10.00;99.90;;;;;;5075595;28;20682;-77
2022/12/22 03:38:55;;;;;;;2.57;2.10;;;10.00;99.90;;;;;;5057579;28;20190;-76
2022/12/22 03:46:49;;;;;;;2.30;1.50;;;10.10;99.90;;;;;;5076143;28;20541;-76
2022/12/22 03:49:15;;;;;;;2.30;1.73;;;10.00;99.90;;;;;;5075692;28;20440;-77
2022/12/22 03:51:41;;;;;;;1.87;1.53;;;9.90;99.90;;;;;;5058187;28;20194;-77
2022/12/22 03:54:09;;;;;;;2.47;1.80;;;10.00;99.90;;;;;;5057874;28;20186;-77
2022/12/22 03:56:34;;;;;;;2.33;1.77;;;10.10;99.90;;;;;;5057795;28;20444;-77
2022/12/22 03:59:00;;;;;;;2.77;2.03;;;10.10;99.90;;;;;;5056854;28;20452;-76
2022/12/22 04:01:27;;;;;;;2.20;2.00;;;10.20;99.90;;;;;;5075003;28;20198;-77
2022/12/22 04:03:52;;;;;;;3.23;1.60;;;10.10;99.90;;;;;;5057411;28;20413;-76
2022/12/22 04:06:18;;;;;;;4.13;1.70;;;10.10;99.90;;;;;;5075057;28;20178;-77
2022/12/22 04:08:44;;;;;;;2.47;1.80;;;10.20;99.90;;;;;;5074194;28;20174;-77
2022/12/22 04:13:57;;;;;;;3.13;2.10;;;10.30;99.90;;;;;;5073512;28;20177;-78
2022/12/22 04:16:22;;;;;;;3.87;2.07;;;10.40;99.90;;;;;;5073218;28;20400;-78
2022/12/22 04:18:48;;;;;;;3.67;2.27;;;10.40;99.90;;;;;;5056466;28;20202;-76
2022/12/22 04:21:14;;;;;;;3.00;1.97;;;10.50;99.90;;;;;;5056373;28;20170;-77
2022/12/22 04:23:39;;;;;;;3.13;2.13;;;10.60;99.90;;;;;;5072185;28;20436;-77
2022/12/22 04:26:05;;;;;;;3.10;1.90;;;10.60;99.90;;;;;;5056341;28;20542;-77
2022/12/22 04:28:30;;;;;;;4.60;2.60;;;10.60;99.90;;;;;;5073134;28;20299;-77
2022/12/22 04:30:56;;;;;;;2.33;1.83;;;10.60;99.90;;;;;;5072972;28;20198;-78
2022/12/22 04:33:21;;;;;;;3.60;2.17;;;10.70;99.90;;;;;;5055010;28;20230;-78
2022/12/22 04:35:47;;;;;;;3.10;2.23;;;10.70;99.90;;;;;;5071091;28;20825;-77
2022/12/22 04:38:12;;;;;;;2.47;1.87;;;10.70;99.90;;;;;;5061418;28;20234;-77
2022/12/22 04:40:38;;;;;;;2.43;1.60;;;10.70;99.90;;;;;;5072053;28;20166;-77
2022/12/22 04:43:03;;;;;;;4.30;2.20;;;10.80;99.90;;;;;;5054084;28;20188;-77
2022/12/22 04:45:29;;;;;;;3.27;2.30;;;10.80;99.90;;;;;;5053694;28;20186;-77
2022/12/22 04:47:54;;;;;;;2.40;2.00;;;10.80;99.90;;;;;;5072135;28;20195;-77
2022/12/22 04:50:20;;;;;;;2.67;2.47;;;10.70;99.90;;;;;;5072067;28;20689;-78
2022/12/22 04:52:45;;;;;;;2.83;1.80;;;10.70;99.90;;;;;;5054551;28;20178;-78
2022/12/22 04:55:11;;;;;;;2.87;1.90;;;10.80;99.90;;;;;;5054123;28;20191;-79
2022/12/22 04:57:36;;;;;;;2.50;1.97;;;10.80;99.90;;;;;;5072525;28;20225;-78
2022/12/22 05:00:04;;;;;;;2.40;2.13;;;10.80;99.90;;;;;;5055011;28;20624;-77
2022/12/22 05:02:29;;;;;;;2.77;2.30;;;10.80;99.90;;;;;;5076578;28;20668;-78
2022/12/22 05:04:55;;;;;;;4.63;1.87;;;10.80;99.90;;;;;;5076075;28;20432;-78
2022/12/22 05:07:20;;;;;;;3.47;2.60;;;10.80;99.90;;;;;;5075902;28;20166;-77
2022/12/22 05:09:47;;;;;;;3.13;2.13;;;10.90;99.90;;;;;;5075330;28;20173;-76
2022/12/22 05:14:56;;;;;;;2.40;2.00;;;10.90;99.90;;;;;;5075269;28;20424;-76
2022/12/22 05:17:22;;;;;;;6.83;2.57;;;11.00;99.90;;;;;;5057365;28;20408;-76
2022/12/22 05:19:47;;;;;;;2.53;2.00;;;11.00;99.90;;;;;;5057486;28;20193;-76
2022/12/22 05:22:13;;;;;;;2.50;2.10;;;11.00;99.90;;;;;;5057376;28;20196;-76
2022/12/22 05:24:38;;;;;;;2.57;2.13;;;11.00;99.90;;;;;;5075775;28;20629;-79
2022/12/22 05:27:04;;;;;;;3.20;1.90;;;11.00;99.90;;;;;;5077116;28;20268;-77
2022/12/22 05:29:30;;;;;;;3.17;2.30;;;11.00;99.90;;;;;;5060841;28;20242;-77
2022/12/22 05:31:55;;;;;;;5.57;2.80;;;11.10;99.90;;;;;;5061107;28;20232;-76
2022/12/22 05:34:21;;;;;;;2.87;2.00;;;11.10;99.90;;;;;;5060307;28;20754;-77
2022/12/22 05:36:46;;;;;;;2.73;1.87;;;11.10;99.90;;;;;;5078340;28;20170;-77
2022/12/22 05:39:12;;;;;;;2.63;1.90;;;11.10;99.90;;;;;;5078216;28;20205;-77
2022/12/22 05:41:37;;;;;;;2.80;2.13;;;11.10;99.90;;;;;;5078396;28;20166;-77
2022/12/22 05:44:03;;;;;;;2.80;2.10;;;10.90;99.90;;;;;;5078146;28;20201;-77
2022/12/22 05:46:28;;;;;;;3.57;2.00;;;11.00;99.90;;;;;;5060424;28;20638;-77
2022/12/22 05:48:54;;;;;;;2.57;2.30;;;11.00;99.90;;;;;;5057811;28;20184;-77
2022/12/22 05:51:19;;;;;;;3.00;1.83;;;11.10;99.90;;;;;;5057131;28;20174;-77
2022/12/22 05:53:45;;;;;;;6.20;2.50;;;11.10;99.90;;;;;;5057168;28;20169;-76
2022/12/22 05:56:10;;;;;;;3.90;2.40;;;11.10;99.90;;;;;;5058240;28;20171;-77
2022/12/22 05:58:39;;;;;;;2.80;2.30;;;11.20;99.90;;;;;;5057015;28;20198;-77
2022/12/22 06:01:05;;;;;;;3.50;2.57;;;11.20;99.90;;;;;;5058054;28;20170;-77
2022/12/22 06:03:31;;;;;;;3.50;2.60;;;11.30;99.90;;;;;;5056751;28;20500;-77
2022/12/22 06:05:57;;;;;;;6.00;3.03;;;11.30;99.90;;;;;;5073846;28;20481;-77
2022/12/22 06:08:23;;;;;;;3.80;2.67;;;11.30;99.90;;;;;;5060079;28;20188;-77
2022/12/22 06:10:49;;;;;;;4.47;3.03;;;11.30;99.90;;;;;;5078395;28;20976;-77
2022/12/22 06:13:15;;;;;;;3.83;2.27;;;11.30;99.90;;;;;;5059991;28;20413;-77
2022/12/22 06:15:41;;;;;;;3.83;3.30;;;11.40;99.90;;;;;;5076419;28;20424;-77
2022/12/22 06:18:06;;;;;;;5.33;3.50;;;11.40;99.90;;;;;;5058514;28;20296;-77
2022/12/22 06:20:32;;;;;;;4.43;3.50;;;11.40;99.90;;;;;;5060741;28;20170;-75
2022/12/22 06:22:57;;;;;;;5.50;4.23;;;11.40;99.90;;;;;;5056550;28;20227;-76
2022/12/22 06:25:23;;;;;;;3.87;3.47;;;11.40;99.90;;;;;;5073370;28;20543;-77
2022/12/22 06:27:48;;;;;;;3.97;3.00;;;11.40;99.90;;;;;;5073610;28;20182;-76
2022/12/22 06:30:15;;;;;;;3.33;2.73;;;11.40;99.90;;;;;;5074498;28;20639;-76
2022/12/22 06:32:41;;;;;;;3.30;3.00;;;11.40;99.90;;;;;;5076809;28;20166;-77
2022/12/22 06:35:08;;;;;;;4.00;3.10;;;11.40;99.90;;;;;;5075872;28;20844;-77
2022/12/22 06:37:34;;;;;;;6.20;3.27;;;11.40;99.90;;;;;;5058575;28;20178;-77
2022/12/22 06:39:59;;;;;;;3.93;3.40;;;11.40;99.90;;;;;;5058628;28;20416;-77
2022/12/22 06:45:09;;;;;;;4.37;3.07;;;11.40;99.90;;;;;;5072913;28;20721;-76
2022/12/22 06:47:35;;;;;;;5.37;3.90;;;11.40;99.90;;;;;;5075118;28;20405;-76
2022/12/22 06:50:00;;;;;;;5.30;3.83;;;11.40;99.90;;;;;;5076873;28;20669;-77
2022/12/22 06:52:26;;;;;;;5.40;3.20;;;11.40;99.90;;;;;;5077801;28;20176;-77
2022/12/22 06:54:51;;;;;;;7.17;4.63;;;11.40;99.90;;;;;;5058520;28;20193;-77
2022/12/22 06:57:17;;;;;;;5.80;3.80;;;11.40;99.90;;;;;;5060061;28;20182;-76
2022/12/22 06:59:42;;;;;;;4.37;2.70;;;11.30;99.90;;;;;;5057555;28;20667;-77
2022/12/22 07:02:11;;;;;;;4.33;2.90;;;11.40;99.90;;;;;;5056360;28;20167;-77
2022/12/22 07:04:36;;;;;;;3.90;2.93;;;11.30;99.90;;;;;;5059618;28;20679;-77
2022/12/22 07:07:02;;;;;;;3.70;2.63;;;11.30;99.90;;;;;;5076810;28;20396;-77
2022/12/22 07:09:28;;;;;;;3.50;2.17;;;11.30;99.90;;;;;;5059967;28;20193;-77
2022/12/22 07:11:54;;;;;;;4.90;2.43;;;11.30;99.90;;;;;;5077263;28;20408;-77
2022/12/22 07:14:20;;;;;;;4.27;2.67;;;11.30;99.90;;;;;;5059546;28;20190;-77
2022/12/22 07:16:46;;;;;;;3.90;2.67;;;11.30;99.90;;;;;;5059435;28;20198;-78
2022/12/22 07:19:12;;;;;;;3.13;2.23;;;11.20;99.90;;;;;;5077283;28;20452;-79
2022/12/22 07:21:38;;;;;;;3.63;2.37;;;11.30;99.90;;;;;;5074724;28;20392;-77
2022/12/22 07:24:03;;;;;;;4.30;2.90;;;11.20;99.90;;;;;;5076187;28;20428;-78
2022/12/22 07:26:29;;;;;;;4.00;2.83;;;11.10;99.90;;;;;;5056797;28;20193;-77
2022/12/22 07:28:55;;;;;;;3.30;2.53;;;10.90;99.90;;;;;;5059117;28;20180;-78
2022/12/22 07:31:20;;;;;;;3.70;2.70;;;10.90;99.90;;;;;;5078053;28;20174;-77
2022/12/22 07:33:46;;;;;;;4.50;3.17;;;11.00;99.90;;;;;;5060127;28;20180;-78
2022/12/22 07:36:18;;;;;;;4.07;3.10;;;11.00;99.90;;;;;;5059769;28;20178;-77
2022/12/22 07:38:46;;;;;;;4.87;3.70;;;10.90;99.90;;;;;;5060152;28;20197;-78
2022/12/22 07:43:58;;;;;;;3.80;2.47;;;10.90;99.90;;;;;;5073310;28;20466;-76
2022/12/22 07:46:26;;;;;;;3.80;3.40;;;11.00;99.90;;;;;;5073903;28;20404;-76
2022/12/22 07:51:37;;;;;;;3.93;3.17;;;11.10;99.90;;;;;;5076596;28;20454;-78
2022/12/22 07:54:08;;;;;;;4.43;3.10;;;11.20;99.90;;;;;;5059606;28;20475;-78
2022/12/22 07:56:34;;;;;;;8.50;3.20;;;11.40;99.90;;;;;;5056377;28;20409;-77
2022/12/22 07:59:00;;;;;;;3.93;2.83;;;11.40;99.90;;;;;;5077227;28;20459;-77
2022/12/22 08:01:26;;;;;;;5.90;3.90;;;11.50;99.90;;;;;;5072460;28;20554;-77
2022/12/22 08:03:51;;;;;;;6.50;3.80;;;11.60;99.90;;;;;;5058477;28;20225;-78
2022/12/22 08:06:17;;;;;;;5.83;4.20;;;11.60;99.90;;;;;;5075870;28;20404;-76
2022/12/22 08:08:43;;;;;;;4.17;2.97;;;11.70;99.90;;;;;;5057977;28;20178;-76
2022/12/22 08:11:08;;;;;;;3.70;2.70;;;11.70;99.90;;;;;;5076345;28;20178;-77
2022/12/22 08:13:34;;;;;;;4.33;3.73;;;11.70;99.90;;;;;;5079944;28;20216;-77
2022/12/22 08:16:05;;;;;;;6.10;3.67;;;11.70;99.90;;;;;;5061417;28;20667;-77
2022/12/22 08:18:31;;;;;;;6.43;3.60;;;11.80;99.90;;;;;;5078751;28;20444;-76
2022/12/22 08:20:56;;;;;;;5.77;5.07;;;11.80;99.90;;;;;;5078816;28;20800;-77
2022/12/22 08:23:22;;;;;;;8.10;6.07;;;11.80;99.90;;;;;;5060465;28;20277;-77
2022/12/22 08:25:54;;;;;;;5.47;4.50;;;11.80;99.90;;;;;;5077114;28;20190;-77
2022/12/22 08:28:20;;;;;;;5.37;4.53;;;11.80;99.90;;;;;;5059472;28;20178;-77
2022/12/22 08:30:47;;;;;;;10.87;5.57;;;11.80;99.90;;;;;;5077890;28;20469;-77
2022/12/22 08:33:13;;;;;;;4.17;3.73;;;11.80;99.90;;;;;;5060649;28;20209;-77
2022/12/22 08:35:38;;;;;;;9.23;5.07;;;11.80;99.90;;;;;;5060629;28;20778;-76
2022/12/22 08:38:05;;;;;;;10.23;6.20;;;11.80;99.90;;;;;;5062671;28;20233;-77
2022/12/22 08:40:31;;;;;;;17.03;6.27;;;11.70;99.90;;;;;;5081136;28;20197;-77
2022/12/22 08:43:01;;;;;;;16.03;9.20;;;11.70;99.90;;;;;;5062903;28;20565;-78
2022/12/22 08:45:27;;;;;;;13.00;8.87;;;11.70;99.90;;;;;;5059799;28;20420;-77
2022/12/22 08:47:52;;;;;;;17.43;8.10;;;11.70;99.90;;;;;;5058316;28;20469;-81
2022/12/22 08:50:18;;;;;;;10.00;7.40;;;11.70;99.90;;;;;;5076558;28;20639;-76
2022/12/22 08:52:43;;;;;;;13.80;6.20;;;11.70;99.90;;;;;;5058268;28;20185;-77
2022/12/22 08:55:09;;;;;;;9.00;6.10;;;11.80;99.90;;;;;;5057985;28;20198;-76
2022/12/22 08:57:35;;;;;;;10.40;7.43;;;11.80;99.90;;;;;;5075892;28;20255;-77
2022/12/22 09:00:00;;;;;;;7.87;5.90;;;11.80;99.90;;;;;;5076150;28;20162;-77
2022/12/22 09:02:26;;;;;;;7.20;5.50;;;11.80;99.90;;;;;;5058112;28;20196;-77
2022/12/22 09:04:52;;;;;;;8.00;5.30;;;11.80;99.90;;;;;;5075640;28;20194;-76
2022/12/22 09:07:17;;;;;;;10.77;6.73;;;11.90;99.90;;;;;;5057932;28;20176;-77
2022/12/22 09:09:44;;;;;;;12.20;7.40;;;11.90;99.90;;;;;;5074840;28;20218;-76
2022/12/22 09:12:10;;;;;;;13.90;7.30;;;11.90;99.90;;;;;;5058354;28;20611;-77
2022/12/22 09:14:35;;;;;;;15.87;8.03;;;11.90;99.90;;;;;;5076395;28;20448;-77
2022/12/22 09:17:01;;;;;;;11.57;7.77;;;11.90;99.90;;;;;;5058075;28;20235;-77
2022/12/22 09:19:26;;;;;;;15.83;8.50;;;11.90;99.90;;;;;;5075306;28;20198;-77
2022/12/22 09:21:52;;;;;;;8.83;6.43;;;12.00;99.90;;;;;;5058126;28;20192;-77
2022/12/22 09:24:18;;;;;;;10.53;6.67;;;12.00;99.90;;;;;;5075059;28;20194;-78
2022/12/22 09:26:43;;;;;;;9.03;5.80;;;12.00;99.90;;;;;;5075892;28;20324;-77
2022/12/22 09:29:09;;;;;;;8.37;5.50;;;12.00;99.90;;;;;;5077101;28;21034;-77
2022/12/22 09:31:34;;;;;;;8.00;5.80;;;12.10;99.90;;;;;;5059650;28;20179;-77
2022/12/22 09:34:00;;;;;;;10.70;6.40;;;12.20;99.90;;;;;;5077005;28;20251;-77
2022/12/22 09:36:28;;;;;;;9.00;5.37;;;12.30;99.90;;;;;;5076482;28;20166;-78
2022/12/22 09:38:54;;;;;;;9.90;6.83;;;12.40;99.90;;;;;;5076510;28;20547;-77
2022/12/22 09:41:25;;;;;;;11.17;6.93;;;12.50;99.90;;;;;;5077826;28;20487;-77
2022/12/22 09:43:52;;;;;;;10.57;6.37;;;12.50;99.90;;;;;;5078984;28;20190;-78
2022/12/22 09:46:26;;;;;;;11.87;7.40;;;12.60;99.90;;;;;;5059446;28;20408;-77
2022/12/22 09:48:52;;;;;;;15.27;7.30;;;12.70;99.90;;;;;;5061014;28;20776;-78
2022/12/22 09:51:19;;;;;;;14.10;8.17;;;12.80;99.90;;;;;;5077376;28;20393;-77
2022/12/22 09:53:49;;;;;;;11.60;7.50;;;12.90;99.90;;;;;;5076628;28;20492;-77
2022/12/22 09:56:16;;;;;;;15.00;8.00;;;13.00;99.90;;;;;;5076041;28;20409;-77
2022/12/22 09:58:43;;;;;;;15.23;7.77;;;13.10;99.90;;;;;;5076171;28;20467;-77
2022/12/22 10:01:33;;;;;;;15.27;6.80;;;13.20;99.90;;;;;;5076118;28;20432;-77
2022/12/22 10:04:01;;;;;;;10.67;6.97;;;13.20;99.90;;;;;;5075736;28;20415;-77
2022/12/22 10:06:38;;;;;;;11.87;7.37;;;13.10;99.90;;;;;;5055720;28;20409;-77
2022/12/22 10:09:20;;;;;;;12.90;6.63;;;13.10;99.90;;;;;;5037948;28;20510;-77
2022/12/22 10:11:50;;;;;;;12.10;7.80;;;13.00;99.90;;;;;;5055661;28;20409;-77
2022/12/22 10:14:16;;;;;;;12.77;8.47;;;12.90;99.90;;;;;;5055595;28;20485;-77
2022/12/22 10:16:41;;;;;;;10.47;6.90;;;12.90;99.90;;;;;;5055913;28;21000;-77
2022/12/22 10:19:10;;;;;;;14.03;7.50;;;12.90;99.90;;;;;;5055779;28;20198;-77
2022/12/22 10:21:35;;;;;;;9.73;6.77;;;13.00;99.90;;;;;;5060525;28;20573;-77
2022/12/22 10:24:24;;;;;;;14.17;7.20;;;13.00;99.90;;;;;;5066307;28;20486;-77
2022/12/22 10:26:56;;;;;;;13.30;6.70;;;13.10;99.90;;;;;;5057611;28;20595;-77
2022/12/22 10:29:22;;;;;;;11.27;7.23;;;13.20;99.90;;;;;;5075889;28;20423;-77
2022/12/22 10:32:11;;;;;;;12.03;6.93;;;13.20;99.90;;;;;;5058572;28;20952;-77
2022/12/22 10:34:36;;;;;;;8.37;6.00;;;13.30;99.90;;;;;;5056246;28;20441;-74
2022/12/22 10:37:04;;;;;;;11.73;7.17;;;13.30;99.90;;;;;;5056198;28;20408;-77
2022/12/22 10:39:35;;;;;;;11.63;6.43;;;13.20;99.90;;;;;;5055675;28;20206;-77
2022/12/22 10:42:09;;;;;;;10.30;7.03;;;13.20;99.90;;;;;;5075698;28;20420;-78
2022/12/22 10:44:37;;;;;;;12.57;7.07;;;13.10;99.90;;;;;;5059476;28;20428;-76
2022/12/22 10:47:15;;;;;;;8.87;6.47;;;13.10;99.90;;;;;;5073760;28;20736;-77
2022/12/22 10:49:46;;;;;;;10.67;6.07;;;13.10;99.90;;;;;;5073536;28;20499;-77
2022/12/22 10:52:19;;;;;;;11.40;6.70;;;13.20;99.90;;;;;;5073519;28;20404;-77
2022/12/22 10:54:45;;;;;;;10.70;6.57;;;13.40;99.90;;;;;;5074671;28;20485;-77
2022/12/22 10:57:13;;;;;;;11.40;6.43;;;13.50;99.90;;;;;;5075818;28;20412;-77
2022/12/22 11:00:00;;;;;;;8.50;6.07;;;13.50;99.90;;;;;;5074879;28;20444;-78
2022/12/22 11:02:30;;;;;;;7.90;5.00;;;13.50;99.90;;;;;;5075965;28;20921;-77
2022/12/22 11:05:16;;;;;;;8.90;6.03;;;13.50;99.90;;;;;;5057640;28;20786;-76
2022/12/22 11:07:43;;;;;;;8.07;5.30;;;13.50;99.90;;;;;;5055660;28;20420;-77
2022/12/22 11:10:18;;;;;;;13.90;8.43;;;13.70;99.90;;;;;;5074437;28;20770;-77
2022/12/22 11:13:01;;;;;;;11.50;6.97;;;13.80;99.90;;;;;;5073955;28;20396;-77
2022/12/22 11:15:38;;;;;;;9.80;6.83;;;13.80;99.90;;;;;;5055794;28;20432;-77
2022/12/22 11:18:37;;;;;;;9.23;5.87;;;13.70;99.90;;;;;;5056160;28;20455;-77
2022/12/22 11:21:23;;;;;;;9.87;5.93;;;13.60;99.90;;;;;;5074161;28;20404;-77
2022/12/22 11:24:17;;;;;;;10.33;6.63;;;14.40;99.90;;;;;;5074460;28;20400;-77
2022/12/22 11:27:15;;;;;;;8.70;4.80;;;15.60;99.90;;;;;;5075288;28;20954;-78
2022/12/22 11:30:00;;;;;;;10.07;6.13;;;16.50;99.90;;;;;;5057346;28;20415;-77
2022/12/22 11:32:28;;;;;;;9.27;6.53;;;17.40;99.90;;;;;;5067489;28;20465;-77
2022/12/22 11:35:04;;;;;;;6.70;4.90;;;18.30;99.90;;;;;;5054375;28;20417;-77
2022/12/22 11:37:52;;;;;;;10.40;5.40;;;18.40;99.90;;;;;;5053628;28;20462;-77
2022/12/22 11:40:20;;;;;;;9.80;4.73;;;17.90;99.90;;;;;;5055339;28;20405;-77
2022/12/22 11:43:13;;;;;;;7.83;5.00;;;17.20;99.90;;;;;;5054217;28;20401;-77
2022/12/22 11:45:57;;;;;;;10.07;4.40;;;16.50;99.90;;;;;;5053902;28;20475;-77
2022/12/22 11:48:50;;;;;;;10.83;5.23;;;15.90;99.90;;;;;;5053980;28;20811;-77
2022/12/22 11:51:36;;;;;;;7.27;4.30;;;16.90;99.90;;;;;;5055021;28;20463;-77
2022/12/22 11:54:22;;;;;;;8.13;5.13;;;19.30;99.90;;;;;;5051984;28;20436;-75
2022/12/22 11:57:14;;;;;;;6.83;5.53;;;21.90;99.90;;;;;;5052078;28;20449;-75
2022/12/22 12:00:09;;;;;;;7.10;4.53;;;24.70;99.90;;;;;;5051999;28;20401;-75
2022/12/22 12:02:46;;;;;;;10.90;7.57;;;26.80;96.20;;;;;;5052003;28;20406;-75
2022/12/22 12:05:35;;;;;;;7.20;5.80;;;26.60;84.20;;;;;;5061482;28;20462;-75
2022/12/22 12:08:12;;;;;;;6.40;4.57;;;26.00;79.90;;;;;;5053690;28;20453;-76
2022/12/22 12:10:46;;;;;;;5.53;4.13;;;25.40;78.10;;;;;;5071099;28;20437;-74
2022/12/22 12:13:21;;;;;;;5.23;4.27;;;25.80;80.00;;;;;;5072057;28;20388;-74
2022/12/22 12:15:54;;;;;;;6.80;5.10;;;26.50;78.50;;;;;;5071322;28;20794;-75
2022/12/22 12:18:43;;;;;;;6.40;4.23;;;27.60;70.00;;;;;;5072205;28;20408;-75
2022/12/22 12:21:41;;;;;;;4.73;3.30;;;29.00;69.30;;;;;;5071747;28;20401;-76
2022/12/22 12:24:48;;;;;;;6.33;3.40;;;30.90;62.30;;;;;;5041584;28;20432;-76
2022/12/22 12:27:34;;;;;;;4.13;3.43;;;32.00;55.00;;;;;;4970618;28;20447;-76
2022/12/22 12:30:12;;;;;;;4.90;3.27;;;31.80;49.90;;;;;;4970800;28;20431;-76
2022/12/22 12:32:54;;;;;;;5.00;3.20;;;31.30;50.00;;;;;;5039643;28;20412;-76
2022/12/22 12:35:29;;;;;;;5.37;3.37;;;29.80;49.60;;;;;;5071244;28;20419;-76
2022/12/22 12:38:04;;;;;;;4.27;3.40;;;28.90;51.60;;;;;;5071725;28;20435;-76
2022/12/22 12:40:39;;;;;;;6.70;3.37;;;28.50;52.20;;;;;;5071628;28;20400;-76
2022/12/22 12:43:05;;;;;;;5.27;4.10;;;27.80;52.30;;;;;;5049734;28;20428;-75
2022/12/22 12:45:40;;;;;;;4.53;3.77;;;27.10;52.00;;;;;;5066144;28;20453;-75
2022/12/22 12:48:23;;;;;;;5.40;3.47;;;26.60;53.50;;;;;;5071391;28;20452;-75
2022/12/22 12:50:56;;;;;;;4.27;3.80;;;26.20;54.50;;;;;;5071570;28;20403;-75
2022/12/22 12:53:22;;;;;;;5.00;3.53;;;26.00;55.80;;;;;;5071485;28;20405;-76
2022/12/22 12:55:51;;;;;;;5.00;4.00;;;25.60;55.60;;;;;;5053106;28;20428;-76
2022/12/22 12:58:52;;;;;;;4.90;4.00;;;24.40;54.10;;;;;;5071299;28;20404;-76
2022/12/22 13:01:18;;;;;;;5.27;3.47;;;23.00;54.60;;;;;;4989762;28;20430;-76
2022/12/22 13:03:44;;;;;;;4.80;3.60;;;21.50;55.60;;;;;;5054375;28;20424;-75
2022/12/22 13:06:44;;;;;;;5.83;3.03;;;20.40;58.40;;;;;;5071103;28;20535;-75
2022/12/22 13:09:16;;;;;;;4.50;3.10;;;21.00;63.00;;;;;;5053080;28;20456;-75
2022/12/22 13:11:42;;;;;;;8.03;3.90;;;21.00;61.30;;;;;;5053418;28;20430;-75
2022/12/22 13:14:07;;;;;;;4.47;3.70;;;20.40;61.40;;;;;;5071108;28;20428;-75
2022/12/22 13:16:36;;;;;;;4.63;2.97;;;20.20;63.10;;;;;;5071011;28;20179;-75
2022/12/22 13:19:05;;;;;;;5.90;3.70;;;20.00;65.30;;;;;;5071268;28;20189;-75
2022/12/22 13:21:43;;;;;;;4.40;2.90;;;19.40;65.40;;;;;;5071709;28;20769;-76
2022/12/22 13:24:27;;;;;;;3.80;3.20;;;18.90;68.20;;;;;;5056696;28;20424;-75
2022/12/22 13:26:54;;;;;;;4.33;3.20;;;17.90;69.20;;;;;;5074713;28;20788;-76
2022/12/22 13:29:38;;;;;;;7.70;3.80;;;17.40;75.40;;;;;;5074545;28;20527;-75
2022/12/22 13:32:20;;;;;;;7.73;3.87;;;16.80;85.10;;;;;;5074710;28;20414;-76
2022/12/22 13:35:14;;;;;;;3.73;3.00;;;16.30;94.20;;;;;;5074369;28;20423;-75
2022/12/22 13:37:44;;;;;;;5.33;3.63;;;15.80;99.90;;;;;;5074546;28;20504;-75
2022/12/22 13:40:14;;;;;;;4.10;3.13;;;15.50;99.90;;;;;;5056426;28;20401;-75
2022/12/22 13:42:52;;;;;;;5.93;4.40;;;15.10;99.90;;;;;;5074456;28;20404;-75
2022/12/22 13:45:21;;;;;;;5.10;3.40;;;14.90;99.90;;;;;;5074116;28;20907;-75
2022/12/22 13:47:47;;;;;;;7.43;3.30;;;14.50;99.90;;;;;;5074205;28;20444;-75
2022/12/22 13:50:35;;;;;;;4.63;3.10;;;14.20;99.90;;;;;;5074235;28;20495;-75
2022/12/22 13:53:04;;;;;;;5.47;4.20;;;13.80;99.90;;;;;;5056355;28;20424;-75
2022/12/22 13:55:31;;;;;;;4.67;3.00;;;13.50;99.90;;;;;;5066919;28;20846;-76
2022/12/22 13:58:06;;;;;;;5.30;3.80;;;13.30;99.90;;;;;;5055864;28;20406;-76
2022/12/22 14:00:32;;;;;;;4.97;3.93;;;13.10;99.90;;;;;;5055485;28;20421;-77
2022/12/22 14:02:58;;;;;;;8.00;4.13;;;12.80;99.90;;;;;;5055435;28;20401;-76
2022/12/22 14:05:30;;;;;;;5.53;4.20;;;12.70;99.90;;;;;;5056836;28;20443;-76
2022/12/22 14:08:04;;;;;;;6.27;3.30;;;12.70;99.90;;;;;;5075449;28;20564;-76
2022/12/22 14:10:37;;;;;;;5.47;3.17;;;12.50;99.90;;;;;;5074885;28;20400;-77
2022/12/22 14:13:13;;;;;;;4.70;3.60;;;12.30;99.90;;;;;;5075101;28;20407;-77
2022/12/22 14:15:38;;;;;;;5.10;3.80;;;12.10;99.90;;;;;;5074620;28;20424;-77
2022/12/22 14:18:04;;;;;;;5.93;3.87;;;12.10;99.90;;;;;;5055862;28;20415;-76
2022/12/22 14:20:35;;;;;;;4.97;4.03;;;12.20;99.90;;;;;;5073839;28;20170;-76
2022/12/22 14:23:06;;;;;;;5.10;3.07;;;12.20;99.90;;;;;;5056183;28;20658;-76
2022/12/22 14:25:39;;;;;;;4.83;2.80;;;12.20;99.90;;;;;;5073204;28;20432;-76
2022/12/22 14:28:13;;;;;;;3.67;2.57;;;12.10;99.90;;;;;;5055662;28;20471;-75
2022/12/22 14:30:44;;;;;;;4.50;2.30;;;11.90;99.90;;;;;;5073202;28;20404;-76
2022/12/22 14:33:28;;;;;;;2.03;1.73;;;11.80;99.90;;;;;;5073450;28;20400;-76
2022/12/22 14:36:05;;;;;;;2.83;1.70;;;11.80;99.90;;;;;;5055344;28;20892;-75
2022/12/22 14:38:39;;;;;;;2.03;1.80;;;11.50;99.90;;;;;;5073287;28;20456;-75
2022/12/22 14:41:39;;;;;;;2.27;1.60;;;11.50;99.90;;;;;;5074698;28;20404;-77
2022/12/22 14:43:58;;;;;;;1.87;1.40;;;11.40;99.90;;;;;;5073934;28;20453;-77
2022/12/22 14:46:24;;;;;;;1.70;1.50;;;11.20;99.90;;;;;;5056092;28;20418;-77
2022/12/22 14:48:49;;;;;;;2.23;1.70;;;11.10;99.90;;;;;;5056626;28;20416;-77
2022/12/22 14:51:19;;;;;;;2.40;1.70;;;11.10;99.90;;;;;;5056331;28;20185;-77
2022/12/22 14:53:47;;;;;;;1.63;1.40;;;11.10;99.90;;;;;;5074116;28;20174;-76
2022/12/22 14:56:17;;;;;;;2.77;1.90;;;11.10;99.90;;;;;;5073836;28;20424;-77
2022/12/22 14:58:44;;;;;;;2.67;2.20;;;11.10;99.90;;;;;;5055959;28;20543;-76
2022/12/22 15:01:18;;;;;;;3.23;1.80;;;11.20;99.90;;;;;;5073969;28;20427;-77
2022/12/22 15:04:06;;;;;;;3.50;2.03;;;11.20;99.90;;;;;;5056265;28;20413;-77
2022/12/22 15:06:41;;;;;;;2.63;1.87;;;11.20;99.90;;;;;;5046858;28;20429;-77
2022/12/22 15:09:15;;;;;;;1.97;1.47;;;11.10;99.90;;;;;;5073962;28;20408;-77
2022/12/22 15:11:54;;;;;;;2.40;2.00;;;11.10;99.90;;;;;;5073997;28;20495;-77
2022/12/22 15:14:28;;;;;;;2.67;2.30;;;11.10;99.90;;;;;;5055747;28;20444;-77
2022/12/22 15:17:00;;;;;;;3.40;1.97;;;11.10;99.90;;;;;;5073780;28;20762;-77
2022/12/22 15:19:32;;;;;;;3.90;3.50;;;11.20;99.90;;;;;;5073865;28;20464;-77
2022/12/22 15:21:58;;;;;;;3.30;2.60;;;11.10;99.90;;;;;;5056107;28;20416;-77
2022/12/22 15:24:50;;;;;;;5.87;3.03;;;11.20;99.90;;;;;;5055410;28;20436;-77
2022/12/22 15:27:16;;;;;;;5.03;3.20;;;11.30;99.90;;;;;;5052539;28;20198;-77
2022/12/22 15:29:44;;;;;;;3.20;2.70;;;11.30;99.90;;;;;;5073476;28;20499;-77
2022/12/22 15:32:13;;;;;;;5.17;4.27;;;11.30;99.90;;;;;;5039115;28;20420;-77
2022/12/22 15:34:40;;;;;;;3.10;2.50;;;11.30;99.90;;;;;;5055551;28;20475;-77
2022/12/22 15:37:09;;;;;;;3.77;2.50;;;11.30;99.90;;;;;;5073782;28;20449;-77
2022/12/22 15:39:35;;;;;;;2.70;2.30;;;11.20;99.90;;;;;;5055696;28;20464;-77
2022/12/22 15:42:02;;;;;;;2.40;1.90;;;11.20;99.90;;;;;;5055986;28;20401;-77
2022/12/22 15:44:31;;;;;;;2.90;2.30;;;11.20;99.90;;;;;;5072744;28;20497;-76
2022/12/22 15:47:00;;;;;;;3.20;2.50;;;11.20;99.90;;;;;;5056610;28;20419;-77
2022/12/22 15:49:29;;;;;;;3.97;3.07;;;11.20;99.90;;;;;;5073858;28;20408;-77
2022/12/22 15:52:01;;;;;;;10.27;6.20;;;11.20;99.90;;;;;;5073513;28;20174;-77
2022/12/22 15:54:28;;;;;;;10.67;7.33;;;11.20;99.90;;;;;;5038552;28;20839;-78
2022/12/22 15:56:54;;;;;;;8.13;6.20;;;11.10;99.90;;;;;;5054112;28;20408;-76
2022/12/22 15:59:24;;;;;;;8.00;5.10;;;11.10;99.90;;;;;;5072102;28;20858;-76
2022/12/22 16:01:49;;;;;;;5.73;2.50;;;11.10;99.90;;;;;;5072197;28;20418;-77
2022/12/22 16:04:16;;;;;;;3.80;2.80;;;11.10;99.90;;;;;;5071742;28;20780;-76
2022/12/22 16:06:42;;;;;;;3.83;3.10;;;11.10;99.90;;;;;;5072122;28;20220;-77
2022/12/22 16:09:36;;;;;;;2.50;2.20;;;11.20;99.90;;;;;;5073102;28;20881;-77
2022/12/22 16:12:08;;;;;;;3.00;2.33;;;11.10;99.90;;;;;;5073082;28;20166;-77
2022/12/22 16:14:36;;;;;;;3.70;2.10;;;11.10;99.90;;;;;;5072309;28;20792;-77
2022/12/22 16:17:01;;;;;;;2.30;2.10;;;11.10;99.90;;;;;;5053544;28;20430;-77
2022/12/22 16:19:27;;;;;;;4.53;3.73;;;11.10;99.90;;;;;;5055485;28;20452;-77
2022/12/22 16:21:53;;;;;;;8.57;5.37;;;11.00;99.90;;;;;;5073836;28;20162;-77
2022/12/22 16:24:27;;;;;;;14.03;8.20;;;11.10;99.90;;;;;;5072874;28;20182;-76
2022/12/22 16:26:55;;;;;;;6.50;4.00;;;11.10;99.90;;;;;;5071630;28;20522;-76
2022/12/22 16:29:21;;;;;;;2.50;2.13;;;11.10;99.90;;;;;;5071737;28;20461;-76
2022/12/22 16:31:48;;;;;;;5.37;3.30;;;11.00;99.90;;;;;;5053675;28;20447;-76
2022/12/22 16:34:13;;;;;;;3.73;2.50;;;11.00;99.90;;;;;;5071421;28;20444;-76
2022/12/22 16:36:39;;;;;;;2.00;1.80;;;10.90;99.90;;;;;;5071571;28;20834;-76
2022/12/22 16:39:04;;;;;;;2.17;1.40;;;11.00;99.90;;;;;;5053478;28;20320;-76
2022/12/22 16:41:30;;;;;;;1.80;1.20;;;10.90;99.90;;;;;;5070517;28;20166;-76
2022/12/22 16:43:58;;;;;;;1.77;1.20;;;10.90;99.90;;;;;;5071475;28;20166;-76
2022/12/22 16:46:24;;;;;;;4.10;1.27;;;10.80;99.90;;;;;;5071310;28;20181;-76